Hauptseite
METAR-TAF:

METAR-TAF

Flughäfen :

Ancona, Italien

Breite: 43-37N, Länge: 013-22E, Höhe: 12 m

Beobachtung

Neuester Wetterbericht von vor 34 Minuten, um 01:50 UTC
Wind 1 kt aus unterschiedlichen Richtungen
Temperatur 6°C
Luftfeuchtigkeit 87%
Luftdruck 1015 hPa
Sichtweite 10 km oder mehr
keine Wolken unter 1500 m und keine Kumulonimbus oder Gewitterwolken

METAR: LIPY 250150Z VRB01KT CAVOK 06/04 Q1015

Zeit: 03:24 (02:24 UTC)

Prognose

Neuester Wetterbericht von vor 3 Stunden und 24 Minuten, um 23:00 UTC
Gültige Prognose vom 25 um 00 UTC bis 25 um 24 UTC
Wind 6 kt aus West/Südwest
Sichtweite 10 km oder mehr
keine Wolken unter 1500 m und keine Kumulonimbus oder Gewitterwolken
Zeitweise
vom 25 um 19 UTC bis 25 um 24 UTC
Regenschauer
Übergehend zu
vom 25 um 20 UTC bis 25 um 22 UTC
Wind 18 kt aus Nordost, Böen bis zu 28 kt

TAF: LIPY 242300Z 2500/2524 24006KT CAVOK TEMPO 2519/2524 SHRA BECMG 2520/2522 04018G28KT

Wetterbeobachtungen und Prognosen von mehr als 4000 Flughäfen (METAR und TAF Bericht).

Die verfügbaren Stationen werden durch gelbe und rote Markierungen auf der Karte dargestellt.

Führen Sie die Maus auf sie, um den Namen der Station zu sehen.

Darauf klicken, um die Beobachtung von Wetterbeobachtungen und Prognosen zu sehen.

Um die Karte zu ändern : klicken Sie auf den grünen Tasten mit einem schwarzen Kreuz Zum Vergrößern, auf den grünen Button mit einem Gedankenstrich zu verkleinern, oder auf die grünen Pfeile für benachbarte Karten.


METAR-TAF: